Time;durP1;ratioP1;P1;durP2;ratioP2;P2;SDS_P1;SDS_P2;PMS_P1;PMS_P2;Temp;Humidity;BMP_temperature;BMP_pressure;BME280_temperature;BME280_humidity;BME280_pressure;Samples;Min_cycle;Max_cycle;Signal;HPM_P1;HPM_P2
2021/07/22 00:02:14;;;;;;;18.23;10.85;;;;;;;16.38;66.21;100894.48;1978322;88;32186;-65
2021/07/22 00:05:17;;;;;;;18.37;10.70;;;;;;;16.45;66.24;100897.66;2007677;87;33382;-65
2021/07/22 00:08:19;;;;;;;24.07;10.78;;;;;;;16.51;66.39;100893.21;2006519;88;29403;-65
2021/07/22 00:11:21;;;;;;;17.60;10.43;;;;;;;16.56;66.31;100895.61;2018442;88;27650;-65
2021/07/22 00:14:23;;;;;;;16.30;11.25;;;;;;;16.61;66.38;100887.19;2016536;88;29913;-65
2021/07/22 00:17:25;;;;;;;18.23;11.20;;;;;;;16.66;66.38;100891.81;2017841;88;32336;-65
2021/07/22 00:20:27;;;;;;;16.45;9.88;;;;;;;16.70;66.49;100890.66;2017950;88;33571;-65
2021/07/22 00:23:28;;;;;;;15.13;9.85;;;;;;;16.77;66.54;100892.47;2006417;88;30449;-65
2021/07/22 00:26:30;;;;;;;15.32;9.95;;;;;;;16.83;66.61;100898.80;2006316;88;27841;-65
2021/07/22 00:29:34;;;;;;;15.80;10.68;;;;;;;16.91;66.52;100901.00;1980849;86;29850;-64
2021/07/22 00:32:36;;;;;;;19.05;10.03;;;;;;;16.97;66.45;100894.72;1969775;88;32262;-64
2021/07/22 00:35:38;;;;;;;18.12;10.82;;;;;;;17.00;66.27;100874.72;1968812;88;32962;-70
2021/07/22 00:38:40;;;;;;;17.75;10.72;;;;;;;17.00;66.27;100874.72;2013030;88;29666;-68
2021/07/22 00:41:41;;;;;;;15.23;9.78;;;;;;;17.19;66.29;100895.13;2023860;87;27971;-67
2021/07/22 00:44:43;;;;;;;15.30;10.28;;;;;;;17.23;66.16;100890.75;2024157;88;29820;-68
2021/07/22 00:47:45;;;;;;;18.50;11.33;;;;;;;17.28;66.26;100887.72;2023641;88;31479;-68
2021/07/22 00:50:50;;;;;;;14.15;8.75;;;;;;;17.34;66.05;100894.08;2023224;88;32992;-68
2021/07/22 00:53:51;;;;;;;;;;;;;;;17.36;66.08;100884.48;2015013;88;30491;-66
2021/07/22 00:56:53;;;;;;;12.68;9.15;;;;;;;17.40;65.97;100896.34;2006691;88;27698;-68
2021/07/22 00:59:55;;;;;;;15.08;9.45;;;;;;;17.44;65.98;100895.16;2006852;88;29519;-66
2021/07/22 01:02:57;;;;;;;14.95;9.95;;;;;;;17.51;66.08;100893.39;2007773;88;32282;-69
2021/07/22 01:06:00;;;;;;;15.30;9.43;;;;;;;17.55;66.11;100889.00;2006643;88;33657;-68
2021/07/22 01:09:01;;;;;;;16.15;9.43;;;;;;;17.60;65.96;100892.27;2007680;88;30566;-69
2021/07/22 01:12:04;;;;;;;13.18;9.78;;;;;;;17.57;65.92;100876.70;2024072;87;27706;-70
2021/07/22 01:15:07;;;;;;;11.73;9.08;;;;;;;17.69;65.86;100889.88;2023768;87;29070;-68
2021/07/22 01:18:10;;;;;;;16.20;9.85;;;;;;;17.71;65.68;100886.07;2013066;88;31078;-68
2021/07/22 01:21:12;;;;;;;15.72;9.88;;;;;;;17.73;65.61;100886.83;2023864;88;33787;-68
2021/07/22 01:24:13;;;;;;;16.20;9.88;;;;;;;17.74;65.54;100889.92;2013024;88;29600;-69
2021/07/22 01:27:15;;;;;;;14.68;9.68;;;;;;;17.75;65.58;100884.89;2008094;88;27746;-66
2021/07/22 01:30:18;;;;;;;14.30;9.68;;;;;;;17.69;65.44;100866.38;2006201;88;29108;-65
2021/07/22 01:33:20;;;;;;;13.22;9.28;;;;;;;17.75;65.50;100886.75;2007000;88;31420;-69
2021/07/22 01:36:25;;;;;;;14.38;10.28;;;;;;;17.76;65.50;100879.84;2006483;88;34231;-69
2021/07/22 01:39:26;;;;;;;;;;;;;;;17.76;65.42;100880.35;2009011;87;30525;-68
2021/07/22 01:42:28;;;;;;;13.15;8.75;;;;;;;17.75;65.20;100882.17;2007161;88;27916;-69
2021/07/22 01:50:06;;;;;;;13.45;9.30;;;;;;;17.71;65.42;100862.19;2006501;88;27699;-69
2021/07/22 01:53:08;;;;;;;14.23;9.28;;;;;;;17.79;65.41;100881.97;2006980;88;33921;-69
2021/07/22 01:56:10;;;;;;;12.98;8.98;;;;;;;17.80;65.39;100879.64;2005755;88;30194;-66
2021/07/22 01:59:12;;;;;;;12.13;8.53;;;;;;;17.82;65.37;100878.54;2006743;88;27687;-69
2021/07/22 02:02:14;;;;;;;15.30;9.30;;;;;;;17.83;65.36;100875.36;2007270;88;28827;-70
2021/07/22 02:05:16;;;;;;;15.65;9.28;;;;;;;17.84;65.32;100875.74;2010305;87;31432;-69
2021/07/22 02:08:18;;;;;;;16.80;9.40;;;;;;;17.83;65.24;100879.42;2035973;87;33033;-69
2021/07/22 02:11:19;;;;;;;17.12;9.90;;;;;;;17.84;65.34;100880.66;2035969;87;30580;-69
2021/07/22 02:14:22;;;;;;;16.60;9.88;;;;;;;17.86;65.34;100874.64;2035833;87;27640;-69
2021/07/22 02:17:24;;;;;;;14.65;9.68;;;;;;;17.88;65.25;100879.47;2035813;87;29513;-67
2021/07/22 02:20:26;;;;;;;15.03;9.58;;;;;;;17.86;65.22;100873.29;2035751;87;32204;-68
2021/07/22 02:23:28;;;;;;;22.13;9.80;;;;;;;17.88;65.26;100872.70;2035793;87;35130;-69
2021/07/22 02:26:30;;;;;;;12.95;8.90;;;;;;;17.90;65.13;100876.17;2035908;87;30537;-69
2021/07/22 02:29:32;;;;;;;16.52;9.03;;;;;;;17.88;65.20;100874.05;2035993;87;27676;-69
2021/07/22 02:32:34;;;;;;;12.58;8.83;;;;;;;17.86;65.17;100870.58;2036199;87;28087;-65
2021/07/22 02:35:35;;;;;;;11.90;8.75;;;;;;;17.87;65.22;100875.02;2035716;87;32261;-69
2021/07/22 02:38:37;;;;;;;18.60;8.20;;;;;;;17.86;65.21;100872.44;2036027;87;33337;-69
2021/07/22 02:41:39;;;;;;;23.10;10.23;;;;;;;17.88;65.18;100869.98;2035861;87;30168;-69
2021/07/22 02:44:42;;;;;;;12.30;8.00;;;;;;;17.91;65.25;100875.66;2035736;87;27745;-69
2021/07/22 02:47:44;;;;;;;15.50;9.08;;;;;;;17.92;65.23;100873.34;2035418;87;29917;-69
2021/07/22 02:50:46;;;;;;;12.05;8.90;;;;;;;17.81;65.22;100862.41;2035687;87;32171;-68
2021/07/22 02:53:48;;;;;;;15.05;9.63;;;;;;;17.95;65.20;100881.76;2014733;85;33918;-69
2021/07/22 02:56:49;;;;;;;12.88;9.38;;;;;;;17.96;65.22;100885.70;2035254;87;29704;-69
2021/07/22 02:59:52;;;;;;;13.83;8.78;;;;;;;17.97;65.23;100884.72;2035522;87;27738;-69
2021/07/22 03:02:54;;;;;;;11.97;9.03;;;;;;;17.97;65.18;100882.02;2036105;87;29456;-69
2021/07/22 03:05:56;;;;;;;12.47;8.50;;;;;;;17.96;65.08;100884.81;2023465;87;31621;-69
2021/07/22 03:08:58;;;;;;;15.03;9.35;;;;;;;17.95;65.22;100885.32;1963571;90;33687;-69
2021/07/22 03:12:00;;;;;;;16.67;10.30;;;;;;;17.94;65.19;100882.23;1963034;90;31468;-69
2021/07/22 03:15:02;;;;;;;13.93;9.33;;;;;;;17.93;65.09;100885.91;1945729;90;28190;-69
2021/07/22 03:18:04;;;;;;;12.93;8.80;;;;;;;17.90;65.24;100883.41;1954858;89;28735;-68
2021/07/22 03:21:06;;;;;;;16.95;9.35;;;;;;;17.90;65.24;100883.41;1954619;90;32638;-68
2021/07/22 03:24:08;;;;;;;15.70;9.35;;;;;;;17.88;65.22;100888.08;1954346;91;34156;-68
2021/07/22 03:27:10;;;;;;;14.05;10.13;;;;;;;17.87;65.35;100890.44;1954685;91;29794;-68
2021/07/22 03:30:14;;;;;;;13.45;9.05;;;;;;;17.87;65.37;100890.44;1964457;90;27878;-68
2021/07/22 03:33:15;;;;;;;27.32;10.05;;;;;;;17.85;65.50;100883.75;1972539;90;29612;-67
2021/07/22 03:36:18;;;;;;;14.83;9.68;;;;;;;17.85;65.54;100892.38;1973143;90;32074;-68
2021/07/22 03:39:20;;;;;;;23.38;10.25;;;;;;;17.85;65.51;100896.45;1974721;88;34150;-67
2021/07/22 03:42:21;;;;;;;14.33;8.25;;;;;;;17.85;65.61;100892.38;1985491;89;30527;-68
2021/07/22 03:45:24;;;;;;;15.88;9.43;;;;;;;17.88;65.69;100890.78;1983751;88;27731;-66
2021/07/22 03:48:31;;;;;;;13.35;8.55;;;;;;;17.92;65.68;100895.91;1985109;89;28723;-63
2021/07/22 03:51:35;;;;;;;16.27;9.35;;;;;;;17.96;65.64;100899.73;1951108;88;27668;-70
2021/07/22 03:54:39;;;;;;;12.93;8.50;;;;;;;18.00;65.62;100899.92;1943937;90;33832;-70
2021/07/22 03:57:41;;;;;;;17.12;9.18;;;;;;;18.02;65.68;100898.86;1977640;89;29341;-69
2021/07/22 04:00:42;;;;;;;18.35;10.15;;;;;;;18.04;65.41;100895.52;1985864;88;27597;-69
2021/07/22 04:03:45;;;;;;;17.07;9.53;;;;;;;18.05;65.51;100897.26;1985662;89;29044;-70
2021/07/22 04:06:47;;;;;;;14.45;9.73;;;;;;;18.05;65.21;100895.91;1991867;87;31057;-69
2021/07/22 04:09:50;;;;;;;15.85;9.05;;;;;;;18.05;65.25;100894.55;2009540;88;33208;-69
2021/07/22 04:13:00;;;;;;;18.98;9.80;;;;;;;17.98;65.33;100885.14;2010978;88;29345;-69
2021/07/22 04:16:03;;;;;;;16.05;8.68;;;;;;;18.04;65.36;100895.52;2014998;87;27953;-69
2021/07/22 04:19:06;;;;;;;13.50;9.20;;;;;;;18.04;65.47;100891.96;2010611;88;29477;-70
2021/07/22 04:22:08;;;;;;;15.50;9.75;;;;;;;18.05;65.51;100889.62;2008556;88;31910;-69
2021/07/22 04:25:11;;;;;;;14.30;9.60;;;;;;;18.07;65.59;100896.66;2009008;88;33006;-70
2021/07/22 04:28:13;;;;;;;14.30;9.30;;;;;;;18.13;65.64;100897.21;2008776;88;29564;-70
2021/07/22 04:31:16;;;;;;;12.65;9.53;;;;;;;18.18;65.62;100895.05;2008764;88;27624;-68
2021/07/22 04:34:18;;;;;;;14.28;9.45;;;;;;;18.22;65.49;100886.56;2008810;88;28697;-70
2021/07/22 04:37:20;;;;;;;12.65;8.60;;;;;;;18.26;65.47;100891.78;2008752;88;32226;-70
2021/07/22 04:40:22;;;;;;;14.53;9.18;;;;;;;18.30;65.43;100891.44;2008143;88;33028;-70
2021/07/22 04:43:24;;;;;;;14.47;9.55;;;;;;;18.29;65.32;100879.31;2008742;88;29394;-70
2021/07/22 04:46:27;;;;;;;11.90;9.30;;;;;;;18.34;65.31;100886.17;2011763;88;27713;-68
2021/07/22 04:49:30;;;;;;;14.70;9.40;;;;;;;18.40;65.30;100886.67;2010861;88;29257;-70
2021/07/22 04:52:32;;;;;;;16.05;10.38;;;;;;;18.42;65.19;100887.44;2014080;87;30485;-70
2021/07/22 04:55:34;;;;;;;15.20;9.13;;;;;;;18.44;65.04;100886.83;2031547;87;33890;-70
2021/07/22 04:58:37;;;;;;;12.23;9.28;;;;;;;18.46;65.11;100895.73;2030471;87;30531;-70
2021/07/22 05:01:38;;;;;;;12.25;8.65;;;;;;;18.47;65.24;100894.25;2020019;87;28177;-68
2021/07/22 05:04:41;;;;;;;16.67;8.68;;;;;;;18.51;65.26;100897.63;2008456;88;29932;-68
2021/07/22 05:07:43;;;;;;;14.15;9.75;;;;;;;18.55;65.30;100895.55;2014144;88;31613;-71
2021/07/22 05:10:45;;;;;;;20.35;10.18;;;;;;;18.61;65.25;100891.88;2020878;87;34285;-70
2021/07/22 05:13:47;;;;;;;16.52;9.75;;;;;;;18.68;65.25;100895.00;2023967;87;30649;-63
2021/07/22 05:16:49;;;;;;;18.42;10.03;;;;;;;18.74;65.22;100893.20;2021227;88;27690;-63
2021/07/22 05:19:51;;;;;;;15.20;9.50;;;;;;;18.78;65.13;100889.75;2021872;87;29444;-63
2021/07/22 05:22:54;;;;;;;19.73;10.08;;;;;;;18.83;65.02;100895.72;2021629;87;31978;-63
2021/07/22 05:25:56;;;;;;;20.62;9.40;;;;;;;18.87;64.92;100893.63;2021608;87;33822;-62
2021/07/22 05:28:58;;;;;;;16.25;10.32;;;;;;;18.83;64.66;100888.93;2020942;88;30620;-63
2021/07/22 05:32:00;;;;;;;36.85;11.68;;;;;;;18.92;64.70;100901.80;2007327;88;27686;-63
2021/07/22 05:35:04;;;;;;;24.60;10.40;;;;;;;18.97;64.67;100900.12;2010284;88;30791;-68
2021/07/22 05:38:06;;;;;;;19.73;11.53;;;;;;;19.00;64.63;100899.04;2021625;87;32283;-72
2021/07/22 05:41:10;;;;;;;17.50;11.10;;;;;;;19.02;64.41;100903.88;2021847;87;32802;-75
2021/07/22 05:44:12;;;;;;;18.37;11.68;;;;;;;19.02;64.48;100904.72;2021379;87;30103;-72
2021/07/22 05:47:14;;;;;;;20.62;11.08;;;;;;;19.03;64.43;100906.45;2021931;88;27994;-73
2021/07/22 05:50:16;;;;;;;18.25;10.90;;;;;;;19.03;64.47;100914.60;1994907;86;29947;-67
2021/07/22 05:53:20;;;;;;;13.62;9.85;;;;;;;19.06;64.51;100911.66;1988050;89;32280;-69
2021/07/22 05:56:22;;;;;;;14.23;9.80;;;;;;;19.10;64.56;100910.45;2021075;88;33765;-69
2021/07/22 05:59:25;;;;;;;15.95;10.43;;;;;;;19.13;64.47;100913.41;2021952;88;30458;-71
2021/07/22 06:02:28;;;;;;;15.83;10.65;;;;;;;19.19;64.49;100917.51;2021290;88;36401;-68
2021/07/22 06:05:31;;;;;;;15.65;10.72;;;;;;;19.21;64.46;100913.68;2021727;87;29963;-69
2021/07/22 06:08:34;;;;;;;15.40;10.43;;;;;;;19.23;64.38;100913.58;2021633;87;31430;-70
2021/07/22 06:11:36;;;;;;;15.35;10.20;;;;;;;19.27;64.46;100914.58;2018845;88;33064;-69
2021/07/22 06:14:39;;;;;;;16.32;11.50;;;;;;;19.33;64.53;100913.23;2019548;87;30654;-70
2021/07/22 06:17:41;;;;;;;17.48;10.45;;;;;;;19.34;64.35;100907.33;2015918;87;27683;-66
2021/07/22 06:20:44;;;;;;;16.23;11.00;;;;;;;19.34;64.29;100906.82;2015789;88;29343;-69
2021/07/22 06:23:47;;;;;;;18.05;10.05;;;;;;;19.36;64.44;100913.00;2015861;88;31044;-67
2021/07/22 06:26:48;;;;;;;21.30;10.30;;;;;;;19.40;64.39;100913.16;2015936;88;32974;-67
2021/07/22 06:29:51;;;;;;;24.10;11.12;;;;;;;19.43;64.23;100910.20;1989201;89;29894;-65
2021/07/22 06:32:52;;;;;;;15.65;10.58;;;;;;;19.50;64.29;100915.14;1989521;89;27636;-67
2021/07/22 06:35:55;;;;;;;16.82;10.75;;;;;;;19.53;64.26;100910.83;1971632;89;29716;-65
2021/07/22 06:38:57;;;;;;;16.45;10.35;;;;;;;19.60;64.37;100909.38;2009814;88;31496;-69
2021/07/22 06:42:01;;;;;;;13.62;10.35;;;;;;;19.67;64.21;100909.26;2019335;87;33025;-70
2021/07/22 06:45:04;;;;;;;15.07;10.83;;;;;;;19.74;64.10;100908.28;2016197;87;29379;-66
2021/07/22 06:48:07;;;;;;;16.77;9.63;;;;;;;19.82;64.02;100906.31;2015612;87;27570;-66
2021/07/22 06:51:11;;;;;;;17.02;10.78;;;;;;;19.88;63.98;100905.36;2018560;87;29487;-63
2021/07/22 06:54:13;;;;;;;17.75;11.03;;;;;;;19.96;63.84;100906.11;2020353;87;34844;-69
2021/07/22 06:57:15;;;;;;;16.70;10.13;;;;;;;20.02;63.81;100904.27;2021681;88;34128;-69
2021/07/22 07:00:17;;;;;;;17.37;10.72;;;;;;;20.10;63.72;100903.66;2016909;87;30513;-70
2021/07/22 07:03:19;;;;;;;17.12;10.68;;;;;;;20.20;63.58;100909.22;2021876;87;28267;-64
2021/07/22 07:06:21;;;;;;;14.43;10.08;;;;;;;20.30;63.57;100905.26;2021505;87;29697;-69
2021/07/22 07:09:23;;;;;;;16.37;10.60;;;;;;;20.41;63.58;100910.69;2021460;88;31117;-69
2021/07/22 07:12:27;;;;;;;14.47;10.38;;;;;;;20.53;63.64;100902.49;2020332;87;34222;-69
2021/07/22 07:15:29;;;;;;;16.20;10.65;;;;;;;20.63;63.47;100900.25;2018521;88;29374;-69
2021/07/22 07:18:31;;;;;;;13.30;9.25;;;;;;;20.74;63.33;100908.05;2021328;87;27679;-67
2021/07/22 07:21:35;;;;;;;18.07;10.35;;;;;;;20.83;62.87;100903.72;2021818;87;28268;-68
2021/07/22 07:24:37;;;;;;;14.28;8.90;;;;;;;20.91;62.98;100898.48;2022008;87;32251;-67
2021/07/22 07:27:40;;;;;;;14.00;10.28;;;;;;;21.01;62.86;100896.73;2021029;87;34199;-68
2021/07/22 07:30:44;;;;;;;10.68;8.85;;;;;;;21.11;62.58;100896.78;2021713;87;30160;-66
2021/07/22 07:33:46;;;;;;;17.37;9.78;;;;;;;21.16;62.04;100897.78;2021548;87;27700;-70
2021/07/22 07:36:48;;;;;;;14.38;10.10;;;;;;;21.22;61.91;100893.15;2021480;88;29357;-68
2021/07/22 07:39:50;;;;;;;15.80;10.35;;;;;;;21.30;61.75;100895.22;2021476;87;31892;-68
2021/07/22 07:42:52;;;;;;;15.63;10.18;;;;;;;21.36;61.24;100891.98;2021444;87;34274;-70
2021/07/22 07:45:54;;;;;;;14.47;10.28;;;;;;;21.41;61.06;100892.45;2019571;87;30551;-68
2021/07/22 07:48:56;;;;;;;13.18;9.13;;;;;;;21.49;61.23;100891.28;2019405;88;27618;-70
2021/07/22 07:51:57;;;;;;;15.50;10.85;;;;;;;;;;2021726;87;29257;-69
2021/07/22 07:54:59;;;;;;;18.05;10.30;;;;;;;21.73;60.77;100892.91;2021852;87;30845;-67
2021/07/22 07:58:01;;;;;;;18.17;8.90;;;;;;;21.82;60.34;100892.59;2021636;87;33410;-69
2021/07/22 08:01:03;;;;;;;13.72;8.65;;;;;;;21.92;60.17;100893.50;2021161;87;29730;-69
2021/07/22 08:04:05;;;;;;;16.15;9.18;;;;;;;22.04;60.01;100892.92;2021348;88;27761;-67
2021/07/22 08:07:07;;;;;;;14.83;9.25;;;;;;;22.12;59.90;100886.78;2019625;87;29516;-67
2021/07/22 08:10:11;;;;;;;18.52;10.25;;;;;;;22.24;59.88;100884.82;2009321;87;32292;-68
2021/07/22 08:13:14;;;;;;;16.20;9.23;;;;;;;22.36;59.77;100889.16;2009304;88;33830;-67
2021/07/22 08:16:18;;;;;;;20.45;10.25;;;;;;;22.48;59.67;100890.44;2008886;88;30530;-64
2021/07/22 08:19:22;;;;;;;21.60;9.35;;;;;;;22.58;59.14;100886.73;2009589;88;27644;-67
2021/07/22 08:22:25;;;;;;;11.97;7.83;;;;;;;22.68;58.91;100898.16;2009128;88;28098;-69
2021/07/22 08:25:27;;;;;;;13.80;9.03;;;;;;;22.79;58.95;100897.19;2008790;88;32367;-64
2021/07/22 08:28:29;;;;;;;19.07;9.58;;;;;;;22.90;58.61;100892.98;2009046;88;34167;-70
2021/07/22 08:31:31;;;;;;;12.40;8.33;;;;;;;22.99;58.20;100895.36;2010938;88;29777;-67
2021/07/22 08:34:34;;;;;;;13.43;8.70;;;;;;;23.08;57.74;100890.91;2014856;88;27646;-68
2021/07/22 08:37:38;;;;;;;16.73;8.53;;;;;;;23.18;57.77;100887.66;2015173;88;28906;-68
2021/07/22 08:40:46;;;;;;;16.25;9.25;;;;;;;23.29;57.64;100893.00;2015737;88;31039;-68
2021/07/22 08:43:49;;;;;;;14.07;9.23;;;;;;;23.43;57.54;100886.72;2013646;88;34206;-69
2021/07/22 08:46:52;;;;;;;12.90;9.55;;;;;;;23.56;57.09;100879.09;2015354;88;29507;-70
2021/07/22 08:49:55;;;;;;;14.70;8.85;;;;;;;23.61;56.73;100880.86;2010082;88;27673;-68
2021/07/22 08:52:59;;;;;;;15.20;8.30;;;;;;;23.70;56.61;100883.22;2009608;88;28660;-70
2021/07/22 08:56:05;;;;;;;11.93;8.25;;;;;;;23.83;56.48;100880.16;2009765;88;31132;-70
2021/07/22 08:59:10;;;;;;;17.52;9.20;;;;;;;23.99;56.42;100879.58;2009060;88;33142;-69
2021/07/22 09:02:17;;;;;;;12.18;8.05;;;;;;;24.10;55.70;100879.38;2009975;88;30291;-70
2021/07/22 09:05:20;;;;;;;13.48;7.92;;;;;;;24.15;55.17;100876.18;2009561;88;28278;-65
2021/07/22 09:08:23;;;;;;;19.07;9.30;;;;;;;24.29;55.12;100881.67;1989621;87;28775;-69
2021/07/22 09:11:26;;;;;;;13.13;8.18;;;;;;;24.38;54.83;100878.53;1989440;88;30553;-70
2021/07/22 09:14:31;;;;;;;19.12;9.75;;;;;;;24.49;54.21;100871.47;1977267;88;33804;-69
2021/07/22 09:17:35;;;;;;;14.87;9.38;;;;;;;24.61;54.13;100873.98;1925500;92;29345;-69
2021/07/22 09:20:40;;;;;;;15.50;8.85;;;;;;;24.71;54.14;100870.72;1977105;90;27695;-69
2021/07/22 09:24:09;;;;;;;13.90;8.93;;;;;;;24.83;53.50;100874.95;1927161;92;29460;-70
2021/07/22 09:27:39;;;;;;;20.45;8.78;;;;;;;24.93;53.20;100874.00;1978812;88;31068;-68
2021/07/22 09:31:02;;;;;;;11.30;8.08;;;;;;;25.06;53.00;100871.75;1926932;92;33425;-67
2021/07/22 09:34:26;;;;;;;15.30;8.83;;;;;;;25.21;52.80;100872.03;1976844;89;28813;-69
2021/07/22 09:37:30;;;;;;;13.20;7.72;;;;;;;25.38;52.70;100874.41;1925464;92;27767;-69
2021/07/22 09:40:35;;;;;;;16.97;8.55;;;;;;;25.56;52.32;100872.18;1977200;88;28681;-69
2021/07/22 09:43:43;;;;;;;14.33;7.75;;;;;;;25.72;51.64;100870.04;1927088;92;31881;-68
2021/07/22 09:46:46;;;;;;;10.03;7.12;;;;;;;25.85;50.76;100866.87;1978949;88;32962;-70
2021/07/22 09:49:49;;;;;;;15.15;7.92;;;;;;;26.00;50.94;100863.86;1927065;92;29334;-67
2021/07/22 09:53:09;;;;;;;15.83;7.67;;;;;;;26.17;50.44;100859.32;2000920;88;27914;-70
2021/07/22 09:56:12;;;;;;;12.65;7.58;;;;;;;26.31;49.87;100861.96;2009233;88;29461;-69
2021/07/22 09:59:16;;;;;;;11.20;7.92;;;;;;;26.46;49.46;100856.70;2009090;88;31049;-67
2021/07/22 10:02:25;;;;;;;24.55;8.18;;;;;;;26.61;49.27;100858.80;2008780;88;33737;-68
2021/07/22 10:05:35;;;;;;;13.25;8.13;;;;;;;26.79;48.80;100861.40;2006429;88;29379;-70
2021/07/22 10:08:39;;;;;;;13.70;8.03;;;;;;;26.90;48.47;100859.72;2002015;87;27520;-69
2021/07/22 10:11:41;;;;;;;9.28;4.87;;;;;;;27.04;48.17;100856.82;2017168;87;29600;-63
2021/07/22 10:14:44;;;;;;;5.42;4.80;;;;;;;27.18;47.10;100860.79;2015601;88;32320;-74
2021/07/22 10:17:56;;;;;;;8.00;5.45;;;;;;;27.23;45.75;100856.14;2015768;87;33930;-70
2021/07/22 10:21:02;;;;;;;8.85;5.55;;;;;;;27.25;45.82;100853.55;2015597;87;29671;-72
2021/07/22 10:24:05;;;;;;;7.35;5.90;;;;;;;27.50;45.50;100852.20;2015957;88;27737;-72
2021/07/22 10:27:07;;;;;;;8.88;6.22;;;;;;;27.69;45.18;100857.83;2016363;87;33089;-74
2021/07/22 10:30:15;;;;;;;9.53;6.37;;;;;;;27.88;44.78;100853.81;2019292;88;30999;-72
2021/07/22 10:33:19;;;;;;;8.45;5.83;;;;;;;27.98;44.55;100848.10;2016389;88;33817;-71
2021/07/22 10:36:23;;;;;;;10.10;6.90;;;;;;;27.90;43.91;100855.03;2015935;88;30042;-69
2021/07/22 10:40:07;;;;;;;10.28;5.87;;;;;;;27.76;42.72;100851.10;2016064;88;27691;-74
2021/07/22 10:43:31;;;;;;;6.17;5.58;;;;;;;27.62;43.53;100849.95;2015791;88;28755;-72
2021/07/22 10:46:56;;;;;;;;;;;;;;;27.64;44.04;100847.01;2022820;88;31321;-74
2021/07/22 10:49:59;;;;;;;7.22;5.72;;;;;;;27.77;43.48;100848.69;2021787;87;37339;-71
2021/07/22 10:53:01;;;;;;;8.85;6.30;;;;;;;27.86;43.28;100846.77;2016162;88;30636;-73
2021/07/22 10:56:10;;;;;;;7.85;5.45;;;;;;;27.98;43.25;100837.63;2015944;88;27679;-71
2021/07/22 10:59:13;;;;;;;7.30;5.70;;;;;;;28.12;43.16;100831.39;2015261;88;29658;-72
2021/07/22 11:02:37;;;;;;;10.88;6.40;;;;;;;28.33;43.20;100831.30;2076765;78;30672;-60
2021/07/22 11:05:57;;;;;;;6.37;5.58;;;;;;;28.23;40.96;100809.98;2096692;82;34225;-64
2021/07/22 11:09:57;;;;;;;12.18;6.20;;;;;;;28.23;40.96;100809.98;2135396;81;29519;-61
2021/07/22 11:13:32;;;;;;;8.53;5.50;;;;;;;28.40;42.12;100827.30;1994385;87;27719;-62
2021/07/22 11:16:31;;;;;;;8.15;5.75;;;;;;;28.46;42.20;100826.05;1960700;87;28302;-68
2021/07/22 11:19:15;;;;;;;7.83;5.58;;;;;;;28.61;41.50;100827.52;2033393;86;28250;-61
2021/07/22 11:22:18;;;;;;;9.78;6.20;;;;;;;28.74;41.10;100829.69;2068011;86;32988;-61
2021/07/22 11:25:22;;;;;;;8.15;6.35;;;;;;;28.78;41.05;100822.77;2048220;86;28943;-61
2021/07/22 11:28:28;;;;;;;8.43;5.87;;;;;;;28.79;41.01;100825.02;2053482;85;27776;-61
2021/07/22 11:31:32;;;;;;;9.13;6.10;;;;;;;28.77;40.80;100825.19;2036361;87;28807;-62
2021/07/22 11:34:36;;;;;;;9.83;6.37;;;;;;;28.66;40.54;100815.41;2037034;87;31196;-61
2021/07/22 11:37:39;;;;;;;7.03;6.03;;;;;;;28.35;39.87;100820.42;2017730;85;33031;-61
2021/07/22 11:40:42;;;;;;;9.53;6.37;;;;;;;28.09;40.18;100816.56;2004176;88;29407;-61
2021/07/22 11:43:50;;;;;;;8.15;6.30;;;;;;;28.05;40.83;100817.45;2003402;88;28142;-62
2021/07/22 11:46:52;;;;;;;8.15;5.67;;;;;;;28.00;41.02;100815.73;2020355;87;28664;-61
2021/07/22 11:49:55;;;;;;;8.88;5.90;;;;;;;27.85;40.94;100812.02;2065623;85;32376;-61
2021/07/22 11:52:57;;;;;;;6.53;5.75;;;;;;;27.67;41.13;100817.22;2080338;85;33768;-61
2021/07/22 11:56:13;;;;;;;7.28;5.65;;;;;;;27.56;41.22;100810.73;2080824;84;30329;-61
2021/07/22 11:59:22;;;;;;;9.28;5.70;;;;;;;27.42;41.46;100810.39;2073025;84;27768;-61
2021/07/22 12:02:24;;;;;;;7.78;5.87;;;;;;;27.33;41.44;100810.03;2111650;80;28503;-61
2021/07/22 12:05:27;;;;;;;9.18;6.22;;;;;;;27.24;41.79;100810.56;2162526;82;31929;-61
2021/07/22 12:08:29;;;;;;;8.43;6.35;;;;;;;27.11;41.53;100811.61;2125281;83;34483;-61
2021/07/22 12:12:00;;;;;;;8.08;6.80;;;;;;;26.99;41.47;100811.09;2216520;80;28692;-61
2021/07/22 12:15:06;;;;;;;8.45;5.78;;;;;;;26.89;41.90;100805.76;2224462;79;27631;-61
2021/07/22 12:18:09;;;;;;;12.93;6.20;;;;;;;26.77;42.03;100802.48;2205930;80;28587;-61
2021/07/22 12:21:27;;;;;;;11.03;7.72;;;;;;;26.69;42.07;100808.83;2125741;83;32274;-61
2021/07/22 12:24:34;;;;;;;7.58;5.28;;;;;;;26.57;42.14;100798.33;2173011;81;33929;-62
2021/07/22 12:27:51;;;;;;;7.53;5.58;;;;;;;26.43;42.56;100784.72;2166690;81;29353;-62
2021/07/22 12:30:53;;;;;;;6.90;5.95;;;;;;;26.38;42.59;100790.73;2174328;81;27712;-61
2021/07/22 12:34:15;;;;;;;9.05;6.40;;;;;;;26.21;42.80;100797.55;2134757;83;29573;-61
2021/07/22 12:37:50;;;;;;;9.83;8.18;;;;;;;26.08;42.38;100794.39;2150868;81;31711;-61
2021/07/22 12:41:07;;;;;;;6.70;6.03;;;;;;;25.94;42.73;100792.63;2154926;82;32752;-61
2021/07/22 12:44:09;;;;;;;11.28;6.67;;;;;;;25.81;42.96;100788.61;2153405;82;29392;-62
2021/07/22 12:47:33;;;;;;;7.62;5.60;;;;;;;25.71;42.89;100784.12;2164503;82;27628;-61
2021/07/22 12:50:43;;;;;;;8.25;6.10;;;;;;;25.64;43.07;100784.41;2090436;85;28641;-61
2021/07/22 12:53:47;;;;;;;9.88;6.22;;;;;;;25.54;43.01;100782.31;2136575;83;31010;-61
2021/07/22 12:56:49;;;;;;;12.43;6.47;;;;;;;25.45;43.09;100782.25;2152931;80;33044;-61
2021/07/22 13:00:03;;;;;;;8.08;5.70;;;;;;;25.38;43.36;100782.53;2106165;83;29528;-61
2021/07/22 13:03:05;;;;;;;8.53;6.03;;;;;;;25.33;43.39;100782.14;2218256;79;27642;-62
2021/07/22 13:06:09;;;;;;;9.58;5.62;;;;;;;25.28;43.43;100773.53;2217226;80;29563;-61
2021/07/22 13:09:11;;;;;;;;;;;;;;;25.29;43.96;100773.88;2203598;80;31888;-61
2021/07/22 13:12:12;;;;;;;8.10;6.40;;;;;;;25.29;43.70;100769.77;2178805;81;34284;-61
2021/07/22 13:15:18;;;;;;;9.23;5.72;;;;;;;25.27;43.95;100770.44;2179940;81;30446;-61
2021/07/22 13:18:20;;;;;;;7.30;5.90;;;;;;;25.23;43.99;100769.91;2194860;80;27693;-61
2021/07/22 13:21:24;;;;;;;9.05;5.83;;;;;;;25.22;43.79;100764.59;2218232;80;29502;-61
2021/07/22 13:24:25;;;;;;;10.03;5.80;;;;;;;25.16;43.63;100769.69;2218491;80;31186;-62
2021/07/22 13:27:28;;;;;;;10.15;6.50;;;;;;;25.14;44.09;100762.66;2216979;80;32995;-62
2021/07/22 13:30:30;;;;;;;7.42;6.12;;;;;;;25.13;43.67;100761.78;2203698;80;29916;-61
2021/07/22 13:33:35;;;;;;;8.78;6.10;;;;;;;25.16;43.76;100762.84;2203756;80;27692;-61
2021/07/22 13:36:43;;;;;;;8.60;5.95;;;;;;;25.16;43.74;100757.35;2203341;80;29852;-61
2021/07/22 13:39:41;;;;;;;6.45;5.75;;;;;;;25.22;44.60;100756.37;2214110;80;32264;-61
2021/07/22 13:42:43;;;;;;;6.62;5.78;;;;;;;25.20;44.03;100755.66;2217479;80;34335;-61
2021/07/22 13:45:45;;;;;;;8.98;5.37;;;;;;;25.23;44.42;100753.45;2217428;80;30660;-62
2021/07/22 13:48:47;;;;;;;6.78;5.50;;;;;;;25.33;44.62;100743.75;2217705;80;27706;-61
2021/07/22 13:51:50;;;;;;;8.65;6.03;;;;;;;25.43;44.31;100740.39;2218264;80;29590;-62
2021/07/22 13:54:54;;;;;;;8.78;6.40;;;;;;;25.51;44.36;100739.58;2218796;80;31179;-61
2021/07/22 13:57:56;;;;;;;6.12;4.78;;;;;;;25.58;44.58;100737.04;2219144;80;33544;-61
2021/07/22 14:01:00;;;;;;;8.33;7.00;;;;;;;25.71;44.50;100734.72;2224175;79;30273;-61
2021/07/22 14:04:02;;;;;;;12.00;6.30;;;;;;;25.82;43.39;100729.42;2216469;80;27643;-61
2021/07/22 14:07:04;;;;;;;6.87;5.90;;;;;;;25.92;43.32;100732.03;2210164;80;29602;-61
2021/07/22 14:10:07;;;;;;;8.50;6.22;;;;;;;26.02;43.17;100735.52;2216493;80;32241;-61
2021/07/22 14:13:10;;;;;;;7.08;6.00;;;;;;;26.10;43.23;100727.81;2190618;81;33765;-61
2021/07/22 14:16:12;;;;;;;7.15;5.70;;;;;;;26.16;43.42;100723.03;2217189;80;30157;-61